createdAt,value
2024-02-06T00:01:52.645Z,62.80
2024-02-06T00:04:19.913Z,63.15
2024-02-06T00:06:46.547Z,62.71
2024-02-06T00:09:13.134Z,62.71
2024-02-06T00:11:39.895Z,63.17
2024-02-06T00:14:06.827Z,63.27
2024-02-06T00:16:34.185Z,62.87
2024-02-06T00:19:02.911Z,62.82
2024-02-06T00:21:29.506Z,63.03
2024-02-06T00:23:56.016Z,62.97
2024-02-06T00:26:22.767Z,62.87
2024-02-06T00:28:49.349Z,63.20
2024-02-06T00:31:16.207Z,62.92
2024-02-06T00:33:42.889Z,63.06
2024-02-06T00:36:09.398Z,63.43
2024-02-06T00:38:36.081Z,63.15
2024-02-06T00:41:02.611Z,63.09
2024-02-06T00:43:29.469Z,63.10
2024-02-06T00:45:56.010Z,62.49
2024-02-06T00:48:22.797Z,63.05
2024-02-06T00:50:49.738Z,63.36
2024-02-06T00:53:16.425Z,63.25
2024-02-06T00:55:43.049Z,63.83
2024-02-06T00:58:09.997Z,63.91
2024-02-06T01:00:37.634Z,63.58
2024-02-06T01:03:04.339Z,63.61
2024-02-06T01:05:30.869Z,63.32
2024-02-06T01:07:59.261Z,64.25
2024-02-06T01:10:26.020Z,63.39
2024-02-06T01:12:52.631Z,63.57
2024-02-06T01:15:19.453Z,63.11
2024-02-06T01:17:46.033Z,63.70
2024-02-06T01:20:12.870Z,63.62
2024-02-06T01:22:39.665Z,63.56
2024-02-06T01:25:06.367Z,63.75
2024-02-06T01:27:32.985Z,63.08
2024-02-06T01:29:59.524Z,64.18
2024-02-06T01:32:26.067Z,63.62
2024-02-06T01:34:52.738Z,63.56
2024-02-06T01:37:19.365Z,63.54
2024-02-06T01:39:46.004Z,63.92
2024-02-06T01:42:12.520Z,63.55
2024-02-06T01:44:39.101Z,63.07
2024-02-06T01:47:08.815Z,63.50
2024-02-06T01:49:36.845Z,63.12
2024-02-06T01:52:05.828Z,63.90
2024-02-06T01:54:32.407Z,63.87
2024-02-06T01:56:59.259Z,63.76
2024-02-06T01:59:26.454Z,64.19
2024-02-06T02:01:53.880Z,63.30
2024-02-06T02:04:20.674Z,63.72
2024-02-06T02:06:47.970Z,63.68
2024-02-06T02:09:14.714Z,63.59
2024-02-06T02:11:41.254Z,63.93
2024-02-06T02:14:08.516Z,64.18
2024-02-06T02:16:35.251Z,63.61
2024-02-06T02:19:02.011Z,63.55
2024-02-06T02:21:30.711Z,63.80
2024-02-06T02:23:57.440Z,63.72
2024-02-06T02:26:24.724Z,63.73
2024-02-06T02:28:52.494Z,63.93
2024-02-06T02:31:21.664Z,63.95
2024-02-06T02:33:48.554Z,63.85
2024-02-06T02:36:15.970Z,64.08
2024-02-06T02:38:43.445Z,64.45
2024-02-06T02:41:10.075Z,64.41
2024-02-06T02:43:36.747Z,64.04
2024-02-06T02:46:03.818Z,64.24
2024-02-06T02:48:30.598Z,64.79
2024-02-06T02:50:57.191Z,63.95
2024-02-06T02:53:23.792Z,64.24
2024-02-06T02:55:50.350Z,63.93
2024-02-06T02:58:17.663Z,64.35
2024-02-06T03:00:44.377Z,64.31
2024-02-06T03:03:10.986Z,64.61
2024-02-06T03:05:39.052Z,64.25
2024-02-06T03:08:06.069Z,64.25
2024-02-06T03:10:32.599Z,64.79
2024-02-06T03:12:59.182Z,64.81
2024-02-06T03:15:26.946Z,64.37
2024-02-06T03:17:55.574Z,64.71
2024-02-06T03:20:22.448Z,63.98
2024-02-06T03:22:49.792Z,63.77
2024-02-06T03:25:16.787Z,64.39
2024-02-06T03:27:44.675Z,63.89
2024-02-06T03:30:11.953Z,63.26
2024-02-06T03:32:39.491Z,62.72
2024-02-06T03:35:08.426Z,63.41
2024-02-06T03:37:35.607Z,62.64
2024-02-06T03:40:02.403Z,62.93
2024-02-06T03:42:29.028Z,62.53
2024-02-06T03:44:56.730Z,62.01
2024-02-06T03:47:23.261Z,61.27
2024-02-06T03:49:50.078Z,61.11
2024-02-06T03:52:16.725Z,61.53
2024-02-06T03:54:43.251Z,61.73
2024-02-06T03:57:11.449Z,61.52
2024-02-06T03:59:37.953Z,61.63
2024-02-06T04:02:04.882Z,62.00
2024-02-06T04:04:31.728Z,61.89
2024-02-06T04:06:58.401Z,62.02
2024-02-06T04:09:25.079Z,62.16
2024-02-06T04:11:51.637Z,62.43
2024-02-06T04:14:18.189Z,62.94
2024-02-06T04:16:45.679Z,63.04
2024-02-06T04:19:12.796Z,63.07
2024-02-06T04:21:39.689Z,63.05
2024-02-06T04:24:07.298Z,62.99
2024-02-06T04:26:33.891Z,63.03
2024-02-06T04:29:00.459Z,63.54
2024-02-06T04:31:27.064Z,63.07
2024-02-06T04:33:53.799Z,63.29
2024-02-06T04:36:22.066Z,62.64
2024-02-06T04:38:48.590Z,63.05
2024-02-06T04:41:15.119Z,63.03
2024-02-06T04:43:41.747Z,63.16
2024-02-06T04:46:08.919Z,63.07
2024-02-06T04:48:35.570Z,63.28
2024-02-06T04:51:02.105Z,63.28
2024-02-06T04:53:29.227Z,63.37
2024-02-06T04:55:55.811Z,63.58
2024-02-06T04:58:22.510Z,63.55
2024-02-06T05:00:49.097Z,63.13
2024-02-06T05:03:15.643Z,64.21
2024-02-06T05:05:42.155Z,64.13
2024-02-06T05:08:10.306Z,63.70
2024-02-06T05:10:37.113Z,64.24
2024-02-06T05:13:03.764Z,64.48
2024-02-06T05:15:30.366Z,63.91
2024-02-06T05:17:56.965Z,64.29
2024-02-06T05:20:23.502Z,64.14
2024-02-06T05:22:50.019Z,64.14
2024-02-06T05:25:16.984Z,64.37
2024-02-06T05:27:44.110Z,65.17
2024-02-06T05:30:11.614Z,64.75
2024-02-06T05:32:38.290Z,64.60
2024-02-06T05:35:05.743Z,64.37
2024-02-06T05:37:32.729Z,65.13
2024-02-06T05:39:59.581Z,64.93
2024-02-06T05:42:26.225Z,64.73
2024-02-06T05:44:52.730Z,64.60
2024-02-06T05:47:19.250Z,64.98
2024-02-06T05:49:46.158Z,64.78
2024-02-06T05:52:12.948Z,64.87
2024-02-06T05:54:39.638Z,65.50
2024-02-06T05:57:06.305Z,65.53
2024-02-06T05:59:33.569Z,65.52
2024-02-06T06:02:00.334Z,66.19
2024-02-06T06:04:30.535Z,66.24
2024-02-06T06:06:57.805Z,66.19
2024-02-06T06:09:24.518Z,66.57
2024-02-06T06:11:51.126Z,67.13
2024-02-06T06:14:17.667Z,67.74
2024-02-06T06:16:44.275Z,67.25
2024-02-06T06:19:10.940Z,67.45
2024-02-06T06:21:39.841Z,68.02
2024-02-06T06:24:09.800Z,68.52
2024-02-06T06:26:38.278Z,68.50
2024-02-06T06:29:04.952Z,68.06
2024-02-06T06:31:31.691Z,69.01
2024-02-06T06:33:58.392Z,69.64
2024-02-06T06:36:25.372Z,68.89
2024-02-06T06:38:52.193Z,68.86
2024-02-06T06:41:19.200Z,69.13
2024-02-06T06:43:45.953Z,68.68
2024-02-06T06:46:12.664Z,69.22
2024-02-06T06:48:39.551Z,68.40
2024-02-06T06:51:06.122Z,68.53
2024-02-06T06:53:32.663Z,68.02
2024-02-06T06:55:59.666Z,68.08
2024-02-06T06:58:26.293Z,67.57
2024-02-06T07:00:54.391Z,67.71
2024-02-06T07:03:21.327Z,67.31
2024-02-06T07:05:52.389Z,67.02
2024-02-06T07:08:19.171Z,67.09
2024-02-06T07:10:45.775Z,66.83
2024-02-06T07:13:12.736Z,66.29
2024-02-06T07:15:39.348Z,66.12
2024-02-06T07:18:06.293Z,66.17
2024-02-06T07:20:32.839Z,66.44
2024-02-06T07:22:59.408Z,66.35
2024-02-06T07:25:26.745Z,65.54
2024-02-06T07:27:53.316Z,65.05
2024-02-06T07:30:27.704Z,64.89
2024-02-06T07:33:00.854Z,65.64
2024-02-06T07:35:27.533Z,65.68
2024-02-06T07:37:54.330Z,64.62
2024-02-06T07:40:20.901Z,64.97
2024-02-06T07:42:50.810Z,65.70
2024-02-06T07:45:17.414Z,64.47
2024-02-06T07:47:45.071Z,64.87
2024-02-06T07:50:11.875Z,64.93
2024-02-06T07:52:38.685Z,64.38
2024-02-06T07:55:05.940Z,63.73
2024-02-06T07:57:32.533Z,63.81
2024-02-06T07:59:59.111Z,64.05
2024-02-06T08:02:25.799Z,64.20
2024-02-06T08:04:55.475Z,63.52
2024-02-06T08:07:26.939Z,63.46
2024-02-06T08:09:53.753Z,63.68
2024-02-06T08:12:20.351Z,63.82
2024-02-06T08:14:46.869Z,63.50
2024-02-06T08:17:14.840Z,63.09
2024-02-06T08:19:41.398Z,63.48
2024-02-06T08:22:08.042Z,63.37
2024-02-06T08:24:34.902Z,63.66
2024-02-06T08:27:02.655Z,63.55
2024-02-06T08:29:29.920Z,63.30
2024-02-06T08:31:56.707Z,63.46
2024-02-06T08:34:23.829Z,63.62
2024-02-06T08:36:50.585Z,63.41
2024-02-06T08:39:17.141Z,63.35
2024-02-06T08:41:43.649Z,63.60
2024-02-06T08:44:10.219Z,63.64
2024-02-06T08:46:37.319Z,62.62
2024-02-06T08:49:04.194Z,63.94
2024-02-06T08:51:31.797Z,63.04
2024-02-06T08:53:59.490Z,62.87
2024-02-06T08:56:26.345Z,62.77
2024-02-06T08:58:52.974Z,63.22
2024-02-06T09:01:23.681Z,62.45
2024-02-06T09:03:52.522Z,63.18
2024-02-06T09:06:20.755Z,62.86
2024-02-06T09:08:48.003Z,63.02
2024-02-06T09:11:14.702Z,62.87
2024-02-06T09:13:43.442Z,62.97
2024-02-06T09:16:10.880Z,62.80
2024-02-06T09:18:37.759Z,62.68
2024-02-06T09:21:04.437Z,62.09
2024-02-06T09:23:31.266Z,62.51
2024-02-06T09:25:59.987Z,62.92
2024-02-06T09:28:28.786Z,62.65
2024-02-06T09:30:55.464Z,62.96
2024-02-06T09:33:22.000Z,62.68
2024-02-06T09:35:48.602Z,62.92
2024-02-06T09:38:15.130Z,62.91
2024-02-06T09:40:44.325Z,62.88
2024-02-06T09:43:11.587Z,62.24
2024-02-06T09:45:38.367Z,62.40
2024-02-06T09:48:05.339Z,62.86
2024-02-06T09:50:31.910Z,63.30
2024-02-06T09:53:01.151Z,63.12
2024-02-06T09:55:28.227Z,62.34
2024-02-06T09:57:55.526Z,63.35
2024-02-06T10:00:23.561Z,63.18
2024-02-06T10:02:54.019Z,63.39
2024-02-06T10:05:24.680Z,63.47
2024-02-06T10:07:51.336Z,63.10
2024-02-06T10:10:19.806Z,64.00
2024-02-06T10:12:46.699Z,63.10
2024-02-06T10:15:28.244Z,62.31
2024-02-06T10:17:57.344Z,63.29
2024-02-06T10:20:24.019Z,62.06
2024-02-06T10:22:51.652Z,63.16
2024-02-06T10:25:18.987Z,62.60
2024-02-06T10:27:45.815Z,62.97
2024-02-06T10:30:12.768Z,62.60
2024-02-06T10:32:42.951Z,62.94
2024-02-06T10:35:10.677Z,62.67
2024-02-06T10:37:39.053Z,62.95
2024-02-06T10:40:12.827Z,63.12
2024-02-06T10:45:18.113Z,62.05
2024-02-06T10:47:46.680Z,62.36
2024-02-06T10:50:14.253Z,62.39
2024-02-06T10:52:41.133Z,62.82
2024-02-06T10:55:09.048Z,62.23
2024-02-06T10:57:40.056Z,62.48
2024-02-06T11:00:16.390Z,61.42
2024-02-06T11:02:47.930Z,62.52
2024-02-06T11:05:29.547Z,62.21
2024-02-06T11:08:30.805Z,61.42
2024-02-06T11:11:03.201Z,61.42
2024-02-06T11:13:34.735Z,61.17
2024-02-06T11:16:06.760Z,61.17
2024-02-06T11:18:41.468Z,61.08
2024-02-06T11:21:11.580Z,60.85
2024-02-06T11:23:40.140Z,60.77
2024-02-06T11:26:07.715Z,60.32
2024-02-06T11:28:35.243Z,60.31
2024-02-06T11:31:04.791Z,60.05
2024-02-06T11:33:37.634Z,60.43
2024-02-06T11:36:10.822Z,60.85
2024-02-06T11:38:39.545Z,59.76
2024-02-06T11:41:14.265Z,60.10
2024-02-06T11:43:42.066Z,60.27
2024-02-06T11:46:08.874Z,60.98
2024-02-06T11:48:35.833Z,61.22
2024-02-06T11:51:03.762Z,60.88
2024-02-06T11:53:31.460Z,60.46
2024-02-06T11:56:03.047Z,60.32
2024-02-06T11:58:29.793Z,59.78
2024-02-06T12:00:57.998Z,61.07
2024-02-06T12:03:24.612Z,60.24
2024-02-06T12:05:51.525Z,59.71
2024-02-06T12:08:21.964Z,60.56
2024-02-06T12:10:49.398Z,60.99
2024-02-06T12:13:16.361Z,60.06
2024-02-06T12:15:43.136Z,59.99
2024-02-06T12:18:16.768Z,59.64
2024-02-06T12:20:44.034Z,60.32
2024-02-06T12:23:13.067Z,59.83
2024-02-06T12:25:42.261Z,60.57
2024-02-06T12:28:35.939Z,60.34
2024-02-06T12:31:02.891Z,59.86
2024-02-06T12:33:35.109Z,59.42
2024-02-06T12:36:04.008Z,59.41
2024-02-06T12:38:30.569Z,60.24
2024-02-06T12:41:01.912Z,60.09
2024-02-06T12:43:28.657Z,60.29
2024-02-06T12:45:55.593Z,60.32
2024-02-06T12:48:22.588Z,60.60
2024-02-06T12:50:49.915Z,60.69
2024-02-06T12:53:25.049Z,60.69
2024-02-06T12:55:52.309Z,60.27
2024-02-06T12:58:22.389Z,60.13
2024-02-06T13:01:00.702Z,60.77
2024-02-06T13:03:29.803Z,59.90
2024-02-06T13:05:58.193Z,60.69
2024-02-06T13:08:31.473Z,60.83
2024-02-06T13:11:11.121Z,60.32
2024-02-06T13:13:37.723Z,60.11
2024-02-06T13:16:07.095Z,61.25
2024-02-06T13:18:37.402Z,60.68
2024-02-06T13:21:09.178Z,61.08
2024-02-06T13:23:37.602Z,61.74
2024-02-06T13:26:04.756Z,61.28
2024-02-06T13:28:31.600Z,61.56
2024-02-06T13:30:58.612Z,61.09
2024-02-06T13:33:25.435Z,61.75
2024-02-06T13:35:54.723Z,60.73
2024-02-06T13:38:21.392Z,60.58
2024-02-06T13:40:48.618Z,61.11
2024-02-06T13:43:15.478Z,60.51
2024-02-06T13:45:42.140Z,60.19
2024-02-06T13:48:08.883Z,59.34
2024-02-06T13:50:35.583Z,59.44
2024-02-06T13:53:03.474Z,59.22
2024-02-06T13:55:33.953Z,59.94
2024-02-06T13:58:02.112Z,61.09
2024-02-06T14:00:28.951Z,60.34
2024-02-06T14:02:55.855Z,59.76
2024-02-06T14:05:24.692Z,60.72
2024-02-06T14:07:53.327Z,59.62
2024-02-06T14:10:20.187Z,59.99
2024-02-06T14:12:50.482Z,59.04
2024-02-06T14:15:18.601Z,58.79
2024-02-06T14:17:47.569Z,58.22
2024-02-06T14:20:16.174Z,58.83
2024-02-06T14:22:44.003Z,58.82
2024-02-06T14:25:11.070Z,56.04
2024-02-06T14:27:37.691Z,54.54
2024-02-06T14:30:05.490Z,55.88
2024-02-06T14:32:32.052Z,56.25
2024-02-06T14:34:58.631Z,56.69
2024-02-06T14:37:25.335Z,56.04
2024-02-06T14:39:51.945Z,51.46
2024-02-06T14:42:18.489Z,49.53
2024-02-06T14:44:51.361Z,50.85
2024-02-06T14:47:19.239Z,52.65
2024-02-06T14:49:46.063Z,54.26
2024-02-06T14:52:12.826Z,53.59
2024-02-06T14:54:40.799Z,55.32
2024-02-06T14:57:07.449Z,57.24
2024-02-06T14:59:34.208Z,58.58
2024-02-06T15:02:00.793Z,59.38
2024-02-06T15:04:27.422Z,59.85
2024-02-06T15:06:54.072Z,59.87
2024-02-06T15:09:20.757Z,59.65
2024-02-06T15:11:47.382Z,61.29
2024-02-06T15:14:13.895Z,61.23
2024-02-06T15:16:41.483Z,60.77
2024-02-06T15:19:09.572Z,60.51
2024-02-06T15:21:36.728Z,60.72
2024-02-06T15:24:03.653Z,61.90
2024-02-06T15:26:34.973Z,60.93
2024-02-06T15:29:02.243Z,61.93
2024-02-06T15:31:30.148Z,62.08
2024-02-06T15:33:57.106Z,62.28
2024-02-06T15:36:23.786Z,62.06
2024-02-06T15:38:50.346Z,61.66
2024-02-06T15:41:17.337Z,62.07
2024-02-06T15:43:44.272Z,61.68
2024-02-06T15:46:12.273Z,61.95
2024-02-06T15:48:46.683Z,62.04
2024-02-06T15:51:13.752Z,62.42
2024-02-06T15:53:40.982Z,62.51
2024-02-06T15:56:07.747Z,62.46
2024-02-06T15:58:34.414Z,62.77
2024-02-06T16:01:01.540Z,62.79
2024-02-06T16:03:28.182Z,63.56
2024-02-06T16:05:54.751Z,64.57
2024-02-06T16:08:21.663Z,62.45
2024-02-06T16:10:48.571Z,61.83
2024-02-06T16:13:15.227Z,61.96
2024-02-06T16:15:42.028Z,62.43
2024-02-06T16:18:09.309Z,62.64
2024-02-06T16:20:36.148Z,63.75
2024-02-06T16:23:03.101Z,63.28
2024-02-06T16:25:30.416Z,63.33
2024-02-06T16:27:57.072Z,63.35
2024-02-06T16:30:23.847Z,63.29
2024-02-06T16:32:50.584Z,63.82
2024-02-06T16:35:17.399Z,64.02
2024-02-06T16:37:46.010Z,63.88
2024-02-06T16:40:14.558Z,63.95
2024-02-06T16:42:44.573Z,64.47
2024-02-06T16:45:11.776Z,64.52
2024-02-06T16:47:38.348Z,64.59
2024-02-06T16:50:05.912Z,64.53
2024-02-06T16:52:32.807Z,64.71
2024-02-06T16:54:59.378Z,64.96
2024-02-06T16:57:25.928Z,64.84
2024-02-06T16:59:52.454Z,64.94
2024-02-06T17:02:20.899Z,63.80
2024-02-06T17:04:47.501Z,64.23
2024-02-06T17:07:14.206Z,64.00
2024-02-06T17:09:40.793Z,64.04
2024-02-06T17:12:07.578Z,64.04
2024-02-06T17:14:34.329Z,63.97
2024-02-06T17:17:00.836Z,63.81
2024-02-06T17:19:28.210Z,63.59
2024-02-06T17:21:54.822Z,63.53
2024-02-06T17:24:21.421Z,63.03
2024-02-06T17:26:48.239Z,63.38
2024-02-06T17:29:15.038Z,63.14
2024-02-06T17:31:41.904Z,63.32
2024-02-06T17:34:08.745Z,63.18
2024-02-06T17:36:39.428Z,63.50
2024-02-06T17:39:06.387Z,63.21
2024-02-06T17:41:33.021Z,63.13
2024-02-06T17:43:59.602Z,62.56
2024-02-06T17:46:26.218Z,62.60
2024-02-06T17:48:52.967Z,62.41
2024-02-06T17:51:19.792Z,62.86
2024-02-06T17:53:46.404Z,62.35
2024-02-06T17:56:12.988Z,62.78
2024-02-06T17:58:42.875Z,62.76
2024-02-06T18:01:11.064Z,62.85
2024-02-06T18:03:37.701Z,62.70
2024-02-06T18:06:04.415Z,62.90
2024-02-06T18:08:31.141Z,63.43
2024-02-06T18:10:57.902Z,63.46
2024-02-06T18:13:24.426Z,62.95
2024-02-06T18:15:51.028Z,62.96
2024-02-06T18:18:18.335Z,62.38
2024-02-06T18:20:46.273Z,63.08
2024-02-06T18:23:14.585Z,62.17
2024-02-06T18:25:41.276Z,62.64
2024-02-06T18:28:09.099Z,62.78
2024-02-06T18:30:35.660Z,62.50
2024-02-06T18:33:02.260Z,62.42
2024-02-06T18:35:30.489Z,62.11
2024-02-06T18:37:58.701Z,62.91
2024-02-06T18:40:25.411Z,62.10
2024-02-06T18:42:51.997Z,62.45
2024-02-06T18:45:18.625Z,62.33
2024-02-06T18:47:45.220Z,62.86
2024-02-06T18:50:11.933Z,62.58
2024-02-06T18:52:39.681Z,62.08
2024-02-06T18:55:10.467Z,62.59
2024-02-06T18:57:41.734Z,62.54
2024-02-06T19:00:09.029Z,62.77
2024-02-06T19:02:37.073Z,63.24
2024-02-06T19:05:05.406Z,63.11
2024-02-06T19:07:32.214Z,63.14
2024-02-06T19:09:58.797Z,62.90
2024-02-06T19:12:25.377Z,62.11
2024-02-06T19:14:51.957Z,62.12
2024-02-06T19:17:18.786Z,62.06
2024-02-06T19:19:46.450Z,62.52
2024-02-06T19:22:13.213Z,62.54
2024-02-06T19:24:42.936Z,62.07
2024-02-06T19:27:09.419Z,62.38
2024-02-06T19:29:36.027Z,62.06
2024-02-06T19:32:06.439Z,61.74
2024-02-06T19:34:34.695Z,61.87
2024-02-06T19:37:01.912Z,62.34
2024-02-06T19:39:28.546Z,62.01
2024-02-06T19:41:56.489Z,62.24
2024-02-06T19:44:23.267Z,61.99
2024-02-06T19:46:50.494Z,62.68
2024-02-06T19:49:17.198Z,61.84
2024-02-06T19:51:43.976Z,61.72
2024-02-06T19:54:11.135Z,62.27
2024-02-06T19:56:41.626Z,61.22
2024-02-06T19:59:08.913Z,61.14
2024-02-06T20:01:35.600Z,61.63
2024-02-06T20:04:02.194Z,61.69
2024-02-06T20:06:31.146Z,61.93
2024-02-06T20:09:02.567Z,61.81
2024-02-06T20:11:36.764Z,61.32
2024-02-06T20:14:03.320Z,61.94
2024-02-06T20:16:30.196Z,61.52
2024-02-06T20:18:56.830Z,62.07
2024-02-06T20:21:27.336Z,61.84
2024-02-06T20:23:53.964Z,61.86
2024-02-06T20:26:20.487Z,62.15
2024-02-06T20:28:47.104Z,61.88
2024-02-06T20:31:13.795Z,62.20
2024-02-06T20:33:40.474Z,61.98
2024-02-06T20:36:07.117Z,61.79
2024-02-06T20:38:33.678Z,62.18
2024-02-06T20:41:00.238Z,62.56
2024-02-06T20:43:26.785Z,62.08
2024-02-06T20:45:53.330Z,62.38
2024-02-06T20:48:20.911Z,61.95
2024-02-06T20:50:47.705Z,62.53
2024-02-06T20:53:14.426Z,62.43
2024-02-06T20:55:41.048Z,62.39
2024-02-06T20:58:08.083Z,61.74
2024-02-06T21:00:34.636Z,61.87
2024-02-06T21:03:04.106Z,61.80
2024-02-06T21:05:31.178Z,62.24
2024-02-06T21:07:58.117Z,62.58
2024-02-06T21:10:24.687Z,62.06
2024-02-06T21:12:51.974Z,62.13
2024-02-06T21:15:20.361Z,62.44
2024-02-06T21:17:47.109Z,62.57
2024-02-06T21:20:14.272Z,62.63
2024-02-06T21:22:41.113Z,61.85
2024-02-06T21:25:08.281Z,61.99
2024-02-06T21:27:35.407Z,62.30
2024-02-06T21:30:02.582Z,61.89
2024-02-06T21:32:29.575Z,61.98
2024-02-06T21:34:57.180Z,61.89
2024-02-06T21:37:24.234Z,62.31
2024-02-06T21:39:56.190Z,62.71
2024-02-06T21:42:23.637Z,62.80
2024-02-06T21:44:50.206Z,62.59
2024-02-06T21:47:16.821Z,62.49
2024-02-06T21:49:44.221Z,62.75
2024-02-06T21:52:11.599Z,62.69
2024-02-06T21:54:38.482Z,62.79
2024-02-06T21:57:05.531Z,62.78
2024-02-06T21:59:32.165Z,62.61
2024-02-06T22:01:59.080Z,62.36
2024-02-06T22:04:25.689Z,62.97
2024-02-06T22:06:52.439Z,62.99
2024-02-06T22:09:19.618Z,62.84
2024-02-06T22:11:46.424Z,63.29
2024-02-06T22:14:13.646Z,63.02
2024-02-06T22:16:43.410Z,62.97
2024-02-06T22:19:10.149Z,63.03
2024-02-06T22:21:37.554Z,62.73
2024-02-06T22:24:05.075Z,62.56
2024-02-06T22:26:31.856Z,62.99
2024-02-06T22:28:58.434Z,62.96
2024-02-06T22:31:25.270Z,62.85
2024-02-06T22:33:52.290Z,62.85
2024-02-06T22:36:19.043Z,62.37
2024-02-06T22:38:47.912Z,62.30
2024-02-06T22:41:14.492Z,62.31
2024-02-06T22:43:41.108Z,62.24
2024-02-06T22:46:07.729Z,62.33
2024-02-06T22:48:34.334Z,62.18
2024-02-06T22:51:00.876Z,62.52
2024-02-06T22:53:27.420Z,62.20
2024-02-06T22:55:54.128Z,62.09
2024-02-06T22:58:20.751Z,62.17
2024-02-06T23:00:47.574Z,62.41
2024-02-06T23:03:14.218Z,62.59
2024-02-06T23:05:40.776Z,62.07
2024-02-06T23:08:07.790Z,62.15
2024-02-06T23:10:34.408Z,62.21
2024-02-06T23:13:01.016Z,62.36
2024-02-06T23:15:28.187Z,62.02
2024-02-06T23:17:55.027Z,62.18
2024-02-06T23:20:21.686Z,62.78
2024-02-06T23:22:48.333Z,61.57
2024-02-06T23:25:15.327Z,62.67
2024-02-06T23:27:41.921Z,62.53
2024-02-06T23:30:09.467Z,62.51
2024-02-06T23:32:36.131Z,62.04
2024-02-06T23:35:04.815Z,61.98
2024-02-06T23:37:31.497Z,62.47
2024-02-06T23:39:58.462Z,62.74
2024-02-06T23:42:25.339Z,61.82
2024-02-06T23:44:51.889Z,62.37
2024-02-06T23:47:18.416Z,62.27
2024-02-06T23:49:45.189Z,62.49
2024-02-06T23:52:11.957Z,62.40
2024-02-06T23:54:38.579Z,62.97
2024-02-06T23:57:05.444Z,62.81
2024-02-06T23:59:32.313Z,62.49
